Time;durP1;ratioP1;P1;durP2;ratioP2;P2;SDS_P1;SDS_P2;PMS_P1;PMS_P2;Temp;Humidity;BMP_temperature;BMP_pressure;BME280_temperature;BME280_humidity;BME280_pressure;Samples;Min_cycle;Max_cycle;Signal;HPM_P1;HPM_P2
2023/06/07 00:00:40;;;;;;;2.75;0.80;;;30.20;98.40;;;;;;4967769;28;20035;-59
2023/06/07 00:03:09;;;;;;;3.65;1.00;;;30.10;98.30;;;;;;4968160;29;20107;-61
2023/06/07 00:05:38;;;;;;;1.45;0.90;;;30.10;98.30;;;;;;4967774;29;20026;-61
2023/06/07 00:08:07;;;;;;;7.30;1.40;;;30.10;98.40;;;;;;4967430;29;20023;-61
2023/06/07 00:10:33;;;;;;;4.95;1.38;;;30.10;98.40;;;;;;4967639;29;20038;-60
2023/06/07 00:13:01;;;;;;;4.32;1.42;;;30.20;98.50;;;;;;4968546;28;20027;-61
2023/06/07 00:15:28;;;;;;;5.63;1.10;;;29.90;98.10;;;;;;4986470;28;20050;-60
2023/06/07 00:17:55;;;;;;;4.85;1.05;;;29.60;98.30;;;;;;4969976;28;20035;-65
2023/06/07 00:20:21;;;;;;;7.70;2.85;;;29.50;98.50;;;;;;4976132;28;20288;-60
2023/06/07 00:22:48;;;;;;;7.15;1.60;;;29.40;99.00;;;;;;4968673;28;20057;-57
2023/06/07 00:25:14;;;;;;;4.50;1.30;;;29.50;99.00;;;;;;4967239;29;20035;-62
2023/06/07 00:27:41;;;;;;;3.80;1.60;;;29.30;99.00;;;;;;4975714;28;20086;-60
2023/06/07 00:30:10;;;;;;;5.65;1.88;;;29.40;99.30;;;;;;4968529;28;20027;-61
2023/06/07 00:32:37;;;;;;;5.53;1.50;;;29.40;99.60;;;;;;4966976;29;20410;-60
2023/06/07 00:35:07;;;;;;;7.07;1.45;;;29.50;99.60;;;;;;4966787;29;20054;-63
2023/06/07 00:37:33;;;;;;;4.07;1.20;;;29.30;99.80;;;;;;4967524;28;20035;-62
2023/06/07 00:40:00;;;;;;;4.53;1.27;;;29.30;99.70;;;;;;4972548;28;20304;-59
2023/06/07 00:42:26;;;;;;;6.10;1.50;;;29.30;99.80;;;;;;4966481;28;20053;-62
2023/06/07 00:44:54;;;;;;;6.07;1.25;;;29.40;99.90;;;;;;4966674;29;20055;-64
2023/06/07 00:47:21;;;;;;;5.88;1.38;;;29.40;99.90;;;;;;4971042;28;20043;-59
2023/06/07 00:49:48;;;;;;;7.95;1.30;;;29.40;99.90;;;;;;4980249;28;20046;-59
2023/06/07 00:52:15;;;;;;;5.53;1.52;;;29.50;99.90;;;;;;4985794;28;20037;-59
2023/06/07 00:54:41;;;;;;;7.45;0.98;;;29.50;99.90;;;;;;4985580;28;20045;-60
2023/06/07 00:57:09;;;;;;;5.70;1.10;;;29.40;99.90;;;;;;4985608;28;20019;-60
2023/06/07 00:59:38;;;;;;;5.55;0.90;;;29.50;99.90;;;;;;4985552;28;20054;-62
2023/06/07 01:02:05;;;;;;;6.15;1.23;;;29.40;99.90;;;;;;4974044;28;20042;-61
2023/06/07 01:04:34;;;;;;;6.15;1.27;;;29.50;99.90;;;;;;4984567;28;20034;-63
2023/06/07 01:07:04;;;;;;;6.15;1.10;;;29.40;99.90;;;;;;4985567;28;20094;-59
2023/06/07 01:09:31;;;;;;;6.32;1.02;;;29.50;99.90;;;;;;4980427;28;20089;-58
2023/06/07 01:11:58;;;;;;;8.05;1.30;;;29.50;99.90;;;;;;4967208;28;20116;-60
2023/06/07 01:14:26;;;;;;;5.15;1.10;;;29.30;99.90;;;;;;4977284;28;20025;-57
2023/06/07 01:16:53;;;;;;;5.85;1.02;;;29.40;99.90;;;;;;4985387;28;20043;-66
2023/06/07 01:19:28;;;;;;;5.13;0.90;;;29.30;99.90;;;;;;4985137;28;20212;-61
2023/06/07 01:22:06;;;;;;;3.28;0.90;;;29.40;99.90;;;;;;4985278;28;20035;-60
2023/06/07 01:24:35;;;;;;;4.18;0.80;;;29.40;99.90;;;;;;4985236;28;20331;-59
2023/06/07 01:27:07;;;;;;;4.30;0.82;;;29.50;99.90;;;;;;4985199;28;20078;-60
2023/06/07 01:29:34;;;;;;;3.08;0.63;;;29.50;99.90;;;;;;4985174;28;20031;-59
2023/06/07 01:32:07;;;;;;;4.60;0.77;;;29.50;99.90;;;;;;4984929;28;20019;-60
2023/06/07 01:34:34;;;;;;;6.75;0.98;;;29.40;99.90;;;;;;4985059;28;20039;-59
2023/06/07 01:37:02;;;;;;;4.07;0.60;;;29.50;99.90;;;;;;4985047;28;20030;-66
2023/06/07 01:39:31;;;;;;;4.25;0.50;;;29.40;99.90;;;;;;4984895;28;20031;-65
2023/06/07 01:41:58;;;;;;;5.38;0.90;;;29.40;99.90;;;;;;4984991;28;20026;-60
2023/06/07 01:44:26;;;;;;;6.35;0.70;;;29.40;99.90;;;;;;4974971;28;20094;-62
2023/06/07 01:46:52;;;;;;;4.18;0.70;;;29.50;99.90;;;;;;4982757;28;20027;-63
2023/06/07 01:49:22;;;;;;;5.55;0.90;;;29.50;99.90;;;;;;4984915;28;20073;-57
2023/06/07 01:51:48;;;;;;;5.18;0.80;;;29.50;99.90;;;;;;4985181;28;20211;-58
2023/06/07 01:54:16;;;;;;;3.67;0.80;;;29.50;99.90;;;;;;4984904;28;20311;-62
2023/06/07 01:56:46;;;;;;;6.32;0.60;;;29.60;99.90;;;;;;4984796;28;20323;-59
2023/06/07 01:59:27;;;;;;;5.68;1.20;;;29.50;99.90;;;;;;4984919;28;20093;-60
2023/06/07 02:01:53;;;;;;;6.13;1.60;;;29.40;99.90;;;;;;4984827;28;20042;-60
2023/06/07 02:04:25;;;;;;;9.10;2.83;;;29.50;99.90;;;;;;4984793;28;20022;-58
2023/06/07 02:06:54;;;;;;;11.32;3.80;;;29.50;99.90;;;;;;4984788;28;20372;-58
2023/06/07 02:09:24;;;;;;;12.45;2.78;;;29.60;99.90;;;;;;4984858;28;20027;-56
2023/06/07 02:11:52;;;;;;;7.00;2.30;;;29.50;99.90;;;;;;4984844;28;20026;-59
2023/06/07 02:14:20;;;;;;;14.35;3.25;;;29.40;99.90;;;;;;4982219;28;20023;-60
2023/06/07 02:16:48;;;;;;;9.40;2.60;;;29.40;99.90;;;;;;4965387;29;20096;-57
2023/06/07 02:19:16;;;;;;;9.00;2.03;;;29.40;99.90;;;;;;4972649;28;20038;-58
2023/06/07 02:21:43;;;;;;;5.72;2.08;;;29.50;99.90;;;;;;4983025;28;20035;-57
2023/06/07 02:24:10;;;;;;;7.15;2.63;;;29.90;99.90;;;;;;4983455;28;20318;-57
2023/06/07 02:26:37;;;;;;;8.52;1.92;;;30.00;99.90;;;;;;4988254;28;20035;-58
2023/06/07 02:29:03;;;;;;;8.52;2.63;;;30.00;99.90;;;;;;4987974;28;20037;-59
2023/06/07 02:31:30;;;;;;;10.52;2.60;;;30.10;99.90;;;;;;4988116;28;20023;-59
2023/06/07 02:33:56;;;;;;;7.38;1.83;;;30.00;99.90;;;;;;4988049;28;20034;-58
2023/06/07 02:36:25;;;;;;;5.07;1.90;;;29.90;99.90;;;;;;4988266;28;20030;-60
2023/06/07 02:38:51;;;;;;;8.35;1.60;;;29.90;99.90;;;;;;4987861;28;20026;-59
2023/06/07 02:41:18;;;;;;;5.80;1.55;;;29.90;99.90;;;;;;4988359;28;20311;-58
2023/06/07 02:43:45;;;;;;;9.35;2.20;;;29.80;99.90;;;;;;4987801;28;20030;-60
2023/06/07 02:46:11;;;;;;;6.00;1.85;;;29.80;99.90;;;;;;4988180;28;20090;-59
2023/06/07 02:48:39;;;;;;;9.43;2.08;;;29.70;99.90;;;;;;4987839;28;20372;-56
2023/06/07 02:51:08;;;;;;;9.50;1.95;;;29.70;99.90;;;;;;4984414;28;20044;-57
2023/06/07 02:53:34;;;;;;;5.07;1.48;;;29.70;99.90;;;;;;4985143;28;20247;-61
2023/06/07 02:56:01;;;;;;;5.65;1.80;;;29.70;99.90;;;;;;4985314;28;22053;-59
2023/06/07 02:58:28;;;;;;;7.13;2.13;;;29.70;99.90;;;;;;4987324;28;20031;-62
2023/06/07 03:00:56;;;;;;;11.43;2.20;;;29.70;99.90;;;;;;4988029;28;20030;-60
2023/06/07 03:03:23;;;;;;;6.95;1.83;;;29.70;99.90;;;;;;4987893;28;20027;-59
2023/06/07 03:05:49;;;;;;;7.40;1.40;;;29.60;99.80;;;;;;4987958;28;20031;-59
2023/06/07 03:08:16;;;;;;;5.90;1.75;;;29.70;99.80;;;;;;4987783;28;20038;-59
2023/06/07 03:10:43;;;;;;;4.57;1.40;;;29.60;99.70;;;;;;4993340;28;20318;-60
2023/06/07 03:13:09;;;;;;;8.13;1.77;;;29.60;99.70;;;;;;4996231;28;20046;-59
2023/06/07 03:15:37;;;;;;;6.20;1.40;;;29.50;99.60;;;;;;4997329;28;20089;-59
2023/06/07 03:18:04;;;;;;;7.63;1.40;;;29.50;99.60;;;;;;4998077;28;20046;-61
2023/06/07 03:20:34;;;;;;;6.82;1.20;;;29.60;99.60;;;;;;4996451;28;20042;-61
2023/06/07 03:23:04;;;;;;;2.28;1.17;;;29.60;99.50;;;;;;4986441;28;20027;-59
2023/06/07 03:25:30;;;;;;;7.38;1.30;;;29.50;99.40;;;;;;4977248;28;20087;-57
2023/06/07 03:27:57;;;;;;;7.03;1.50;;;29.60;99.40;;;;;;4968072;29;20350;-59
2023/06/07 03:30:23;;;;;;;9.60;1.48;;;29.50;99.30;;;;;;4968325;29;20043;-61
2023/06/07 03:32:50;;;;;;;5.50;1.00;;;29.40;99.20;;;;;;4967891;29;20091;-59
2023/06/07 03:35:18;;;;;;;4.20;1.15;;;29.50;99.20;;;;;;4967445;28;20038;-57
2023/06/07 03:37:44;;;;;;;8.35;1.30;;;29.50;99.20;;;;;;4967958;29;20023;-59
2023/06/07 03:40:12;;;;;;;9.90;1.48;;;29.50;99.10;;;;;;4968130;29;20026;-60
2023/06/07 03:42:39;;;;;;;5.00;1.65;;;29.50;99.10;;;;;;4967683;29;20031;-60
2023/06/07 03:45:06;;;;;;;5.45;1.42;;;29.50;99.00;;;;;;4968118;29;20236;-60
2023/06/07 03:47:33;;;;;;;6.15;1.10;;;29.40;98.90;;;;;;4967759;29;20027;-60
2023/06/07 03:50:00;;;;;;;4.20;1.10;;;29.40;98.90;;;;;;4967660;29;20259;-60
2023/06/07 03:52:26;;;;;;;5.82;0.90;;;29.30;98.80;;;;;;4967450;29;20380;-60
2023/06/07 03:54:53;;;;;;;5.72;1.38;;;29.30;98.80;;;;;;4971882;28;20107;-60
2023/06/07 03:57:19;;;;;;;5.05;0.95;;;29.30;98.70;;;;;;4982189;28;20035;-60
2023/06/07 03:59:46;;;;;;;8.05;1.30;;;29.30;98.70;;;;;;4986906;28;20019;-60
2023/06/07 04:02:12;;;;;;;5.70;1.05;;;29.30;98.70;;;;;;4986851;28;20026;-59
2023/06/07 04:04:39;;;;;;;4.05;0.82;;;29.30;98.70;;;;;;4986744;28;20035;-57
2023/06/07 04:07:07;;;;;;;7.93;1.15;;;29.20;98.60;;;;;;4986728;28;20226;-62
2023/06/07 04:10:23;;;;;;;5.38;0.98;;;29.30;98.70;;;;;;4985151;28;20319;-59
2023/06/07 04:12:50;;;;;;;6.13;0.98;;;29.30;98.70;;;;;;4990649;28;20022;-60
2023/06/07 04:15:16;;;;;;;5.65;1.20;;;29.30;98.70;;;;;;4994384;28;20049;-59
2023/06/07 04:17:43;;;;;;;2.88;0.98;;;29.20;98.60;;;;;;4975623;28;20192;-59
2023/06/07 04:20:10;;;;;;;7.72;0.80;;;29.20;98.60;;;;;;4967249;29;20370;-59
2023/06/07 04:22:37;;;;;;;3.40;0.93;;;29.20;98.60;;;;;;4966897;29;20039;-59
2023/06/07 04:25:04;;;;;;;9.15;0.88;;;29.20;98.60;;;;;;4967392;29;20315;-60
2023/06/07 04:27:30;;;;;;;6.40;1.08;;;29.20;98.50;;;;;;4967045;29;20380;-58
2023/06/07 04:29:57;;;;;;;5.70;0.65;;;29.20;98.60;;;;;;4974332;28;20196;-61
2023/06/07 04:32:25;;;;;;;7.80;0.90;;;29.20;98.60;;;;;;4986266;28;20031;-61
2023/06/07 04:34:51;;;;;;;6.30;1.00;;;29.20;98.40;;;;;;4984840;28;20030;-60
2023/06/07 04:37:19;;;;;;;4.68;0.80;;;29.10;98.40;;;;;;4970368;28;20275;-61
2023/06/07 04:39:49;;;;;;;10.15;1.08;;;29.20;98.50;;;;;;4979406;28;20047;-56
2023/06/07 04:42:17;;;;;;;4.00;0.50;;;29.20;98.50;;;;;;4966408;28;20031;-61
2023/06/07 04:44:44;;;;;;;7.10;0.93;;;29.10;98.50;;;;;;4971580;28;20102;-59
2023/06/07 04:47:11;;;;;;;7.68;0.85;;;29.00;98.40;;;;;;4970912;28;20069;-60
2023/06/07 04:49:38;;;;;;;4.85;0.77;;;29.10;98.50;;;;;;4966615;29;20054;-60
2023/06/07 04:52:07;;;;;;;8.43;0.77;;;29.10;98.50;;;;;;4966353;29;20071;-60
2023/06/07 04:54:36;;;;;;;4.05;0.60;;;29.10;98.50;;;;;;4966552;29;20026;-60
2023/06/07 04:57:03;;;;;;;6.03;0.50;;;29.10;98.50;;;;;;4966360;29;20090;-60
2023/06/07 04:59:34;;;;;;;4.63;0.77;;;29.10;98.50;;;;;;4966308;29;20180;-60
2023/06/07 05:02:02;;;;;;;4.28;0.65;;;29.10;98.50;;;;;;4966324;29;20035;-60
2023/06/07 05:04:30;;;;;;;4.20;0.60;;;29.20;98.60;;;;;;4966372;29;20207;-60
2023/06/07 05:06:58;;;;;;;4.30;0.63;;;29.10;98.50;;;;;;4966148;29;20027;-60
2023/06/07 05:09:27;;;;;;;8.25;0.63;;;29.10;98.50;;;;;;4966264;29;20034;-62
2023/06/07 05:11:54;;;;;;;4.15;0.45;;;29.20;98.60;;;;;;4966234;29;20062;-61
2023/06/07 05:14:20;;;;;;;6.05;0.70;;;29.10;98.40;;;;;;4966663;29;20035;-62
2023/06/07 05:16:48;;;;;;;4.43;0.70;;;29.10;98.40;;;;;;4966211;29;20034;-61
2023/06/07 05:19:16;;;;;;;4.03;0.40;;;29.10;98.40;;;;;;4966191;29;20199;-62
2023/06/07 05:21:43;;;;;;;2.30;0.40;;;29.10;98.50;;;;;;4966685;29;20039;-61
2023/06/07 05:24:37;;;;;;;3.70;0.50;;;29.20;98.50;;;;;;4966106;28;20011;-61
2023/06/07 05:27:06;;;;;;;4.53;0.75;;;29.10;98.50;;;;;;4966191;29;20059;-59
2023/06/07 05:29:32;;;;;;;5.90;0.80;;;29.10;98.50;;;;;;4966632;29;20067;-61
2023/06/07 05:31:59;;;;;;;8.43;0.85;;;29.10;98.50;;;;;;4966027;29;20031;-61
2023/06/07 05:34:25;;;;;;;7.65;1.00;;;29.10;98.60;;;;;;4966413;29;20035;-61
2023/06/07 05:36:52;;;;;;;3.42;0.65;;;29.10;98.60;;;;;;4966425;29;20086;-60
2023/06/07 05:39:18;;;;;;;6.95;0.75;;;29.20;98.70;;;;;;4965704;29;20207;-60
2023/06/07 05:41:45;;;;;;;7.40;0.63;;;29.20;98.70;;;;;;4966232;29;20039;-63
2023/06/07 05:44:12;;;;;;;5.78;0.82;;;29.20;98.70;;;;;;4966010;29;20019;-61
2023/06/07 05:46:38;;;;;;;5.70;0.80;;;29.20;98.60;;;;;;4965788;29;20087;-61
2023/06/07 05:49:05;;;;;;;4.43;0.55;;;29.20;98.60;;;;;;4965902;29;20078;-61
2023/06/07 05:51:32;;;;;;;6.50;0.73;;;29.20;98.60;;;;;;4966660;29;20035;-61
2023/06/07 05:53:58;;;;;;;5.93;0.55;;;29.20;98.60;;;;;;4965774;29;20088;-61
2023/06/07 05:56:25;;;;;;;9.52;0.80;;;29.20;98.60;;;;;;4966156;29;20131;-61
2023/06/07 05:58:52;;;;;;;5.25;0.75;;;29.10;98.60;;;;;;4968523;28;20019;-62
2023/06/07 06:01:18;;;;;;;4.55;0.52;;;29.10;98.70;;;;;;4972938;28;20015;-62
2023/06/07 06:03:45;;;;;;;7.30;0.80;;;29.10;98.80;;;;;;4972213;29;20043;-62
2023/06/07 06:06:16;;;;;;;6.20;0.82;;;29.20;98.80;;;;;;4972380;28;20299;-60
2023/06/07 06:08:44;;;;;;;5.77;0.80;;;29.20;98.80;;;;;;4972241;29;20374;-62
2023/06/07 06:11:12;;;;;;;6.80;0.85;;;29.20;98.70;;;;;;4973106;28;20693;-62
2023/06/07 06:13:39;;;;;;;6.68;0.70;;;29.20;98.70;;;;;;4971997;28;20027;-59
2023/06/07 06:16:06;;;;;;;6.53;0.93;;;29.20;98.60;;;;;;4972564;28;20034;-60
2023/06/07 06:18:33;;;;;;;5.93;0.88;;;29.20;98.60;;;;;;4972310;29;20110;-60
2023/06/07 06:20:59;;;;;;;9.02;0.82;;;29.20;98.70;;;;;;4972821;29;20027;-60
2023/06/07 06:23:26;;;;;;;4.97;0.77;;;29.20;98.60;;;;;;4972455;29;20027;-61
2023/06/07 06:25:52;;;;;;;5.20;0.70;;;29.20;98.60;;;;;;4972513;29;20094;-61
2023/06/07 06:28:20;;;;;;;9.73;1.00;;;29.30;98.60;;;;;;4972360;29;20035;-61
2023/06/07 06:30:47;;;;;;;6.85;0.80;;;29.20;98.70;;;;;;4972226;28;20034;-60
2023/06/07 06:33:13;;;;;;;5.70;0.90;;;29.20;98.70;;;;;;4954748;29;20267;-58
2023/06/07 06:35:40;;;;;;;8.00;0.98;;;29.20;98.80;;;;;;4972134;28;20031;-60
2023/06/07 06:38:07;;;;;;;3.58;0.82;;;29.20;98.90;;;;;;4972221;28;20023;-59
2023/06/07 06:40:33;;;;;;;6.93;0.85;;;29.20;98.90;;;;;;4972074;28;20031;-63
2023/06/07 06:43:00;;;;;;;3.65;0.80;;;29.30;99.10;;;;;;4972011;29;20035;-63
2023/06/07 06:45:27;;;;;;;10.00;0.98;;;29.20;99.10;;;;;;4972383;29;20030;-61
2023/06/07 06:47:53;;;;;;;4.50;0.70;;;29.30;99.20;;;;;;4971629;29;20062;-61
2023/06/07 06:50:20;;;;;;;7.82;0.90;;;29.30;99.30;;;;;;4972542;29;20039;-61
2023/06/07 06:52:46;;;;;;;5.07;0.63;;;29.30;99.30;;;;;;4972083;29;20051;-61
2023/06/07 06:55:13;;;;;;;5.93;0.90;;;29.30;99.40;;;;;;4971883;29;20035;-59
2023/06/07 06:57:39;;;;;;;3.13;0.73;;;29.20;99.30;;;;;;4971761;29;20303;-60
2023/06/07 07:00:08;;;;;;;6.50;0.70;;;29.20;99.40;;;;;;4972261;29;20192;-60
2023/06/07 07:02:35;;;;;;;5.32;0.77;;;29.30;99.50;;;;;;4971306;28;20069;-61
2023/06/07 07:05:03;;;;;;;9.30;0.85;;;29.30;99.50;;;;;;4971861;29;20031;-61
2023/06/07 07:07:30;;;;;;;6.45;0.75;;;29.30;99.50;;;;;;4971430;28;20038;-62
2023/06/07 07:09:56;;;;;;;5.93;0.70;;;29.20;99.60;;;;;;4970247;28;20099;-60
2023/06/07 07:12:23;;;;;;;3.42;0.60;;;29.30;99.60;;;;;;4968442;28;20023;-61
2023/06/07 07:14:50;;;;;;;4.78;0.88;;;29.20;99.60;;;;;;4968784;29;20034;-61
2023/06/07 07:17:16;;;;;;;5.38;0.85;;;29.30;99.70;;;;;;4968374;29;20035;-61
2023/06/07 07:19:43;;;;;;;4.20;0.98;;;29.30;99.70;;;;;;4968552;29;20200;-61
2023/06/07 07:22:10;;;;;;;4.90;0.98;;;29.40;99.60;;;;;;4968500;29;20323;-61
2023/06/07 07:24:36;;;;;;;6.60;1.27;;;29.40;99.60;;;;;;4968679;29;20057;-61
2023/06/07 07:27:03;;;;;;;6.57;1.05;;;29.40;99.80;;;;;;4968195;29;20030;-60
2023/06/07 07:29:30;;;;;;;4.38;1.05;;;29.40;99.60;;;;;;4968386;29;20027;-60
2023/06/07 07:31:56;;;;;;;3.08;0.80;;;29.30;99.40;;;;;;4968387;29;20047;-61
2023/06/07 07:34:23;;;;;;;3.38;0.65;;;29.20;99.50;;;;;;4968709;29;20035;-61
2023/06/07 07:36:50;;;;;;;4.28;1.05;;;29.20;99.20;;;;;;4968403;29;20106;-61
2023/06/07 07:39:16;;;;;;;3.05;0.60;;;29.20;99.10;;;;;;4967806;29;20103;-60
2023/06/07 07:41:43;;;;;;;3.58;0.63;;;29.20;99.10;;;;;;4967929;29;20214;-61
2023/06/07 07:44:10;;;;;;;2.95;0.80;;;29.10;98.90;;;;;;4968382;29;20026;-60
2023/06/07 07:46:36;;;;;;;3.50;0.68;;;29.10;98.90;;;;;;4968403;29;20102;-60
2023/06/07 07:49:03;;;;;;;2.75;0.50;;;29.10;98.80;;;;;;4968913;29;20082;-61
2023/06/07 07:51:30;;;;;;;3.78;0.60;;;28.90;98.50;;;;;;4968090;29;20031;-61
2023/06/07 07:53:56;;;;;;;2.70;0.60;;;28.90;98.40;;;;;;4967722;29;20324;-60
2023/06/07 07:56:23;;;;;;;3.17;0.55;;;28.80;98.20;;;;;;4981166;28;20026;-61
2023/06/07 07:58:50;;;;;;;2.85;0.68;;;28.70;98.20;;;;;;4987155;28;20027;-61
2023/06/07 08:01:19;;;;;;;5.22;1.15;;;28.70;98.00;;;;;;4987650;28;20077;-61
2023/06/07 08:03:47;;;;;;;4.40;0.98;;;28.70;98.10;;;;;;4987551;28;20196;-62
2023/06/07 08:06:13;;;;;;;4.10;0.90;;;28.70;98.10;;;;;;4987598;28;20176;-61
2023/06/07 08:08:40;;;;;;;2.42;0.82;;;28.70;97.90;;;;;;4986654;28;20030;-60
2023/06/07 08:11:06;;;;;;;5.00;0.80;;;28.60;97.90;;;;;;4987664;28;20026;-61
2023/06/07 08:13:33;;;;;;;3.88;0.82;;;28.60;97.90;;;;;;4987323;28;20050;-61
2023/06/07 08:15:59;;;;;;;4.10;0.90;;;28.50;97.80;;;;;;4987361;28;20085;-60
2023/06/07 08:18:26;;;;;;;3.78;0.95;;;28.50;97.80;;;;;;4986877;28;20330;-60
2023/06/07 08:20:53;;;;;;;2.25;0.80;;;28.50;97.90;;;;;;4987173;28;20031;-60
2023/06/07 08:23:19;;;;;;;4.40;0.93;;;28.50;97.80;;;;;;4985726;28;20054;-61
2023/06/07 08:25:46;;;;;;;2.20;0.70;;;28.50;97.80;;;;;;4986665;28;20274;-61
2023/06/07 08:28:12;;;;;;;7.18;0.80;;;28.50;97.80;;;;;;4986662;28;20219;-60
2023/06/07 08:30:42;;;;;;;3.20;0.60;;;28.50;97.80;;;;;;4986894;28;20101;-61
2023/06/07 08:33:08;;;;;;;3.67;0.60;;;28.50;97.70;;;;;;4986137;28;20085;-60
2023/06/07 08:35:35;;;;;;;2.42;0.60;;;28.50;97.80;;;;;;4972962;28;20023;-62
2023/06/07 08:38:01;;;;;;;2.15;0.60;;;28.50;97.80;;;;;;4967234;29;20219;-63
2023/06/07 08:40:29;;;;;;;4.10;0.73;;;28.50;97.80;;;;;;4967205;29;20023;-61
2023/06/07 08:42:57;;;;;;;1.30;0.52;;;28.50;97.80;;;;;;4966833;29;20215;-60
2023/06/07 08:45:23;;;;;;;1.85;0.45;;;28.50;97.80;;;;;;4967284;29;20039;-62
2023/06/07 08:47:50;;;;;;;2.85;0.52;;;28.40;97.70;;;;;;4966637;29;20027;-62
2023/06/07 08:50:21;;;;;;;2.28;0.50;;;28.50;97.80;;;;;;4967236;29;20023;-61
2023/06/07 08:52:52;;;;;;;2.45;0.60;;;28.50;97.80;;;;;;4966931;29;20031;-61
2023/06/07 08:55:19;;;;;;;1.95;0.50;;;28.50;97.90;;;;;;4966587;29;20030;-60
2023/06/07 08:57:52;;;;;;;0.77;0.32;;;28.50;97.90;;;;;;4966749;29;20066;-61
2023/06/07 09:00:23;;;;;;;1.88;0.40;;;28.40;97.80;;;;;;4967057;29;20026;-62
2023/06/07 09:02:54;;;;;;;2.70;0.55;;;28.40;97.70;;;;;;4966673;29;20035;-61
2023/06/07 09:05:21;;;;;;;1.85;0.60;;;28.40;97.90;;;;;;4966744;29;20050;-61
2023/06/07 09:07:52;;;;;;;3.40;0.73;;;28.40;97.90;;;;;;4966627;29;20065;-62
2023/06/07 09:10:19;;;;;;;4.95;1.10;;;28.40;98.00;;;;;;4966534;29;20023;-61
2023/06/07 09:12:46;;;;;;;2.83;1.10;;;28.40;98.00;;;;;;4966259;29;20259;-61
2023/06/07 09:15:20;;;;;;;5.30;1.52;;;28.40;98.10;;;;;;4966941;29;20043;-61
2023/06/07 09:18:04;;;;;;;5.65;1.50;;;28.40;98.10;;;;;;4966011;29;20052;-60
2023/06/07 09:20:31;;;;;;;5.28;1.30;;;28.40;98.20;;;;;;4966557;29;20043;-61
2023/06/07 09:23:11;;;;;;;4.45;1.25;;;28.50;98.20;;;;;;4966155;29;20055;-60
2023/06/07 09:25:38;;;;;;;5.22;1.35;;;28.40;98.20;;;;;;4966696;29;20192;-61
2023/06/07 09:28:12;;;;;;;4.18;1.10;;;28.30;98.30;;;;;;4966104;29;20031;-61
2023/06/07 09:30:57;;;;;;;3.72;1.20;;;28.40;98.40;;;;;;4966239;29;20204;-61
2023/06/07 09:33:33;;;;;;;3.13;0.88;;;28.40;98.40;;;;;;4965630;28;20038;-61
2023/06/07 09:36:10;;;;;;;4.00;1.10;;;28.40;98.40;;;;;;4966561;29;20308;-61
2023/06/07 09:38:37;;;;;;;4.20;1.10;;;28.40;98.40;;;;;;4966027;29;20035;-62
2023/06/07 09:41:06;;;;;;;2.90;1.00;;;28.40;98.30;;;;;;4966907;29;20047;-61
2023/06/07 09:43:43;;;;;;;1.95;0.80;;;28.40;98.40;;;;;;4966171;29;20023;-61
2023/06/07 09:46:10;;;;;;;3.28;0.85;;;28.40;98.40;;;;;;4966588;29;20027;-60
2023/06/07 09:48:53;;;;;;;2.22;0.80;;;28.50;98.40;;;;;;4965776;29;20106;-61
2023/06/07 09:51:21;;;;;;;2.40;0.70;;;28.50;98.60;;;;;;4966159;29;20037;-61
2023/06/07 09:54:05;;;;;;;3.42;0.68;;;28.50;98.30;;;;;;4966168;29;20123;-62
2023/06/07 09:56:32;;;;;;;2.75;0.65;;;28.50;98.30;;;;;;4965687;29;20046;-61
2023/06/07 09:59:13;;;;;;;3.85;0.68;;;28.50;98.30;;;;;;4965874;29;20019;-61
2023/06/07 10:01:45;;;;;;;1.63;0.50;;;28.50;98.40;;;;;;4965965;29;20035;-60
2023/06/07 10:04:11;;;;;;;;;;;28.50;98.30;;;;;;4965928;29;20066;-60
2023/06/07 10:06:45;;;;;;;2.08;0.63;;;28.50;98.30;;;;;;4965618;29;20199;-60
2023/06/07 10:09:12;;;;;;;2.10;0.65;;;28.50;98.30;;;;;;4975853;28;20027;-62
2023/06/07 10:11:44;;;;;;;2.28;0.70;;;28.50;98.40;;;;;;4985430;28;20042;-59
2023/06/07 10:14:16;;;;;;;4.10;0.70;;;28.50;98.40;;;;;;4985230;28;20030;-60
2023/06/07 10:17:00;;;;;;;0.90;0.55;;;28.50;98.30;;;;;;4984996;28;20041;-60
2023/06/07 10:19:51;;;;;;;1.73;0.63;;;28.40;98.20;;;;;;4984841;28;20050;-61
2023/06/07 10:22:24;;;;;;;3.25;1.08;;;28.40;98.30;;;;;;4984994;28;20231;-60
2023/06/07 10:24:59;;;;;;;7.18;1.00;;;28.40;98.20;;;;;;4984978;28;20033;-61
2023/06/07 10:27:29;;;;;;;4.05;1.00;;;28.40;98.20;;;;;;4984856;28;20038;-61
2023/06/07 10:30:13;;;;;;;5.78;0.82;;;28.50;98.30;;;;;;4984829;28;20026;-61
2023/06/07 10:32:39;;;;;;;5.13;0.90;;;28.50;98.20;;;;;;4985202;28;20038;-61
2023/06/07 10:35:09;;;;;;;2.13;0.60;;;28.40;98.20;;;;;;4984554;28;20069;-61
2023/06/07 10:37:40;;;;;;;9.13;1.10;;;28.40;98.20;;;;;;4985521;28;20183;-62
2023/06/07 10:40:11;;;;;;;12.30;1.02;;;28.40;98.20;;;;;;4985036;28;20026;-61
2023/06/07 10:42:43;;;;;;;4.45;0.70;;;28.40;98.30;;;;;;4984514;28;20058;-61
2023/06/07 10:45:18;;;;;;;5.43;0.70;;;28.40;98.30;;;;;;4984850;28;20053;-61
2023/06/07 10:47:50;;;;;;;2.35;0.50;;;28.40;98.30;;;;;;4988041;28;20034;-60
2023/06/07 10:50:31;;;;;;;3.08;0.52;;;28.40;98.30;;;;;;4988421;28;20256;-61
2023/06/07 10:53:02;;;;;;;3.28;0.40;;;28.40;98.30;;;;;;4988188;28;20038;-61
2023/06/07 10:55:32;;;;;;;7.53;0.50;;;28.40;98.30;;;;;;4988563;28;20030;-62
2023/06/07 10:58:00;;;;;;;3.90;0.45;;;28.40;98.20;;;;;;4988070;28;20038;-61
2023/06/07 11:00:32;;;;;;;4.45;0.40;;;28.40;98.30;;;;;;4988462;28;20023;-61
2023/06/07 11:03:06;;;;;;;3.90;0.57;;;28.40;98.40;;;;;;4988421;28;20027;-61
2023/06/07 11:06:05;;;;;;;3.22;0.93;;;28.50;98.40;;;;;;4988171;28;20031;-60
2023/06/07 11:08:33;;;;;;;4.38;0.77;;;28.50;98.60;;;;;;4988029;28;20047;-61
2023/06/07 11:11:01;;;;;;;2.28;0.90;;;28.50;98.60;;;;;;4988875;28;20370;-61
2023/06/07 11:13:53;;;;;;;2.58;1.00;;;28.50;98.60;;;;;;4988238;28;20042;-60
2023/06/07 11:16:28;;;;;;;3.20;0.57;;;28.50;98.70;;;;;;4988268;28;20086;-60
2023/06/07 11:19:11;;;;;;;3.13;0.65;;;28.60;98.70;;;;;;4987732;28;20054;-61
2023/06/07 11:21:57;;;;;;;1.17;0.40;;;28.60;98.80;;;;;;4988211;28;20175;-61
2023/06/07 11:24:24;;;;;;;3.30;0.40;;;28.60;98.70;;;;;;4987969;28;20023;-61
2023/06/07 11:26:51;;;;;;;2.92;0.60;;;28.50;98.90;;;;;;4987493;28;20037;-61
2023/06/07 11:29:19;;;;;;;0.90;0.35;;;28.40;99.10;;;;;;4987853;28;20035;-62
2023/06/07 11:32:00;;;;;;;1.70;0.40;;;28.50;99.20;;;;;;4987770;28;20341;-61
2023/06/07 11:34:29;;;;;;;2.10;0.30;;;28.50;99.20;;;;;;4987975;28;20033;-61
2023/06/07 11:37:16;;;;;;;1.73;0.45;;;28.60;99.40;;;;;;4988111;28;20041;-61
2023/06/07 11:39:43;;;;;;;1.85;0.45;;;28.50;99.40;;;;;;4987493;28;20199;-61
2023/06/07 11:42:10;;;;;;;2.72;0.50;;;28.60;99.50;;;;;;4987303;28;20093;-61
2023/06/07 11:44:37;;;;;;;3.20;0.50;;;28.70;99.40;;;;;;4987371;28;20062;-60
2023/06/07 11:47:06;;;;;;;2.03;0.50;;;28.50;99.40;;;;;;4987766;28;20342;-60
2023/06/07 11:49:38;;;;;;;1.70;0.40;;;28.60;99.50;;;;;;4987456;28;20206;-61
2023/06/07 11:52:05;;;;;;;3.60;0.60;;;28.50;99.50;;;;;;4987239;28;20066;-60
2023/06/07 11:54:32;;;;;;;0.40;0.30;;;28.60;99.60;;;;;;4987273;28;20023;-61
2023/06/07 11:56:58;;;;;;;1.58;0.30;;;28.60;99.50;;;;;;4986829;28;20042;-61
2023/06/07 11:59:26;;;;;;;1.45;0.50;;;28.50;99.60;;;;;;4986806;28;20106;-61
2023/06/07 12:01:53;;;;;;;0.88;0.40;;;28.50;99.90;;;;;;4987349;28;20027;-62
2023/06/07 12:04:22;;;;;;;3.33;0.60;;;28.60;99.60;;;;;;4986882;28;20022;-61
2023/06/07 12:06:49;;;;;;;2.33;0.63;;;28.60;99.90;;;;;;4987022;28;20038;-61
2023/06/07 12:09:18;;;;;;;3.85;0.68;;;28.60;99.80;;;;;;4987268;28;20029;-61
2023/06/07 12:11:46;;;;;;;0.98;0.55;;;28.60;99.80;;;;;;4987144;28;20035;-61
2023/06/07 12:14:31;;;;;;;2.17;0.55;;;28.70;99.90;;;;;;4986995;28;20030;-61
2023/06/07 12:16:59;;;;;;;3.08;0.82;;;28.70;99.90;;;;;;4986492;28;20038;-61
2023/06/07 12:19:25;;;;;;;2.95;0.90;;;28.80;99.70;;;;;;4986566;28;20113;-62
2023/06/07 12:21:52;;;;;;;3.35;0.80;;;28.90;99.70;;;;;;4986869;28;20015;-61
2023/06/07 12:24:20;;;;;;;2.60;0.80;;;28.90;99.60;;;;;;4986660;28;20015;-61
2023/06/07 12:26:46;;;;;;;4.03;0.88;;;28.90;99.50;;;;;;4986340;28;20393;-62
2023/06/07 12:29:13;;;;;;;2.88;0.88;;;29.00;99.50;;;;;;4986722;28;20370;-61
2023/06/07 12:31:43;;;;;;;1.60;0.70;;;28.90;99.50;;;;;;4986260;28;20039;-61
2023/06/07 12:34:10;;;;;;;4.45;0.60;;;28.90;99.50;;;;;;4986493;28;20030;-60
2023/06/07 12:36:38;;;;;;;1.52;0.60;;;29.00;99.60;;;;;;4986338;28;20041;-60
2023/06/07 12:39:06;;;;;;;2.05;0.60;;;29.00;99.50;;;;;;4970606;28;20019;-60
2023/06/07 12:41:33;;;;;;;1.90;0.50;;;29.00;99.60;;;;;;4966926;29;20150;-60
2023/06/07 12:44:01;;;;;;;2.53;0.70;;;29.00;99.50;;;;;;4967144;29;20090;-61
2023/06/07 12:46:29;;;;;;;0.80;0.40;;;29.00;99.50;;;;;;4966756;29;20262;-60
2023/06/07 12:48:56;;;;;;;1.90;0.40;;;29.00;99.50;;;;;;4966623;29;20058;-61
2023/06/07 12:51:24;;;;;;;1.73;0.52;;;29.00;99.50;;;;;;4967818;29;20061;-60
2023/06/07 12:53:51;;;;;;;1.08;0.40;;;29.00;99.50;;;;;;4966647;29;20308;-60
2023/06/07 12:56:18;;;;;;;1.63;0.50;;;29.00;99.50;;;;;;4967164;29;20035;-60